Terminal Aerodrome Forecast
Issued by NWS Twin Cities, MN

Current Version | Previous Version | Text Only | Print | Product List | Glossary On
Versions: 1 2 3 4 5 6 7 8 9 10 11 12 13 14 15 16 17 18 19 20 21 22 23 24 25 26 27 28 29 30
000
FTUS43 KMPX 231434 AAB
TAFMSP
TAF AMD
KMSP 231434Z 2315/2418 10010KT P6SM VCSH SCT050 OVC150
     FM231600 12011G17KT 6SM -SHRA BKN050 OVC100
      TEMPO 2316/2319 3SM -TSRA OVC035CB
     FM232000 14012G19KT P6SM SCT040 BKN090
     FM240200 17011KT P6SM VCSH BKN060
      TEMPO 2402/2404 2SM TSRA BKN020CB
     FM240500 23008KT P6SM SCT060 BKN100
     FM240800 28005KT P6SM SCT250=

USA.gov is the U.S. government's official web portal to all federal, state and local government web resources and services.